• Join FlightAware (Why Join?)
  • Login
  • US Flag 
06:18AM EDT


 

Airport Tracker/Info


-or-


 

Live Flight TrackerFlight Track Log ✈ N609C ✈ 28-Aug-2013 ✈ KRYV - KBKL

Flight Track Log - Related Links

Times and Time Zones

All times are in EDT time to prevent confusion due to time zone crossing. See the N609C flight status page for this flight to view local times or setup timezone preferences in your user account.

Time Position Orientation Groundspeed Altitude Reporting Facility
EDT Latitude Longitude Course Direction KTS MPH feet Rate Location/Type
01:18PM 43.1500 -88.6000 90° East 142 163 3,000  Level KMKE
01:19PM 43.1503 -88.5464 90° East 135 155 3,700 540 Climbing Chicago Center
01:20PM 43.1431 -88.4911 100° East 143 165 4,200 660 Climbing Chicago Center
01:21PM 43.1378 -88.4394 98° East 141 162 5,100 720 Climbing Chicago Center
01:22PM 43.1300 -88.3922 103° East 134 154 5,800 660 Climbing Chicago Center
01:23PM 43.1242 -88.3419 99° East 133 153 6,500 660 Climbing Chicago Center
01:24PM 43.1175 -88.2797 98° East 140 161 7,200 660 Climbing Chicago Center
01:25PM 43.1119 -88.2269 98° East 141 162 7,900 600 Climbing Chicago Center
01:26PM 43.1072 -88.1761 97° East 137 158 8,500 540 Climbing Chicago Center
01:27PM 43.1014 -88.1264 99° East 133 153 9,100 480 Climbing Chicago Center
01:28PM 43.0958 -88.0739 98° East 139 160 9,600 480 Climbing Chicago Center
01:29PM 43.0886 -88.0114 99° East 143 165 10,200 480 Climbing Chicago Center
01:30PM 43.0833 -87.9589 98° East 140 161 10,700 360 Climbing Chicago Center
01:31PM 43.0778 -87.9042 98° East 145 167 11,000 180 Climbing Chicago Center
01:32PM 43.0708 -87.8425 99° East 161 185 11,100  Climbing Chicago Center
01:33PM 43.0636 -87.7747 98° East 176 203 11,100  Level Chicago Center
01:34PM 43.0547 -87.6964 99° East 180 207 11,100  Level Chicago Center
01:35PM 43.0464 -87.6286 100° East 179 206 11,100  Level Chicago Center
01:36PM 43.0394 -87.5631 98° East 176 203 11,100  Level Chicago Center
01:37PM 43.0319 -87.4964 99° East 177 204 11,100  Level Chicago Center
01:39PM 43.0247 -87.4283 98° East 180 207 11,100  Level Chicago Center
01:40PM 43.0161 -87.3564 99° East 179 206 11,100  Level Chicago Center
01:41PM 43.0078 -87.2897 100° East 179 206 11,100  Level Chicago Center
01:42PM 43.0003 -87.2217 99° East 179 206 11,100  Level Chicago Center
01:43PM 42.9933 -87.1544 98° East 179 206 11,100  Level Chicago Center
01:44PM 42.9828 -87.0728 100° East 182 209 11,100  Level Chicago Center
01:45PM 42.9744 -87.0053 100° East 182 209 11,100  Level Chicago Center
01:46PM 42.9672 -86.9372 98° East 182 209 11,100  Level Chicago Center
01:47PM 42.9592 -86.8697 99° East 182 209 11,100  Level Chicago Center
01:48PM 42.9508 -86.8017 99° East 183 211 11,100  Level Chicago Center
01:49PM 42.9411 -86.7208 99° East 180 207 11,100  Level Chicago Center
01:50PM 42.9333 -86.6533 99° East 182 209 11,100  Level Chicago Center
01:51PM 42.9247 -86.5853 100° East 183 211 11,100  Level Chicago Center
01:52PM 42.9161 -86.5197 100° East 178 205 11,100  Level Chicago Center
01:53PM 42.9078 -86.4517 99° East 181 208 11,100  Level Chicago Center
01:54PM 42.8997 -86.3844 99° East 181 208 11,100  Level Chicago Center
01:55PM 42.8903 -86.3044 99° East 179 206 11,100  Level Chicago Center
01:56PM 42.8814 -86.2375 100° East 181 208 11,100  Level Chicago Center
01:57PM 42.8733 -86.1700 99° East 182 209 11,100  Level Chicago Center
01:58PM 42.8644 -86.1047 101° East 177 204 11,100  Level Chicago Center
01:59PM 42.8564 -86.0375 99° East 180 207 11,100  Level Chicago Center
02:00PM 42.8458 -85.9569 100° East 182 209 11,100 -60 Level Chicago Center
02:01PM 42.8372 -85.8906 100° East 180 207 11,000 -60 Descending Chicago Center
02:02PM 42.8281 -85.8225 100° East 181 208 11,000  Level Chicago Center
02:03PM 42.8206 -85.7575 99° East 179 206 11,000  Level Chicago Center
02:04PM 42.8106 -85.6769 100° East 180 207 11,000  Level Chicago Center
02:05PM 42.8008 -85.6106 101° East 180 207 11,000  Level Chicago Center
02:06PM 42.7931 -85.5453 99° East 177 204 11,000  Level Chicago Center
02:08PM 42.7847 -85.4797 100° East 177 204 11,000  Level Chicago Center
02:09PM 42.7708 -85.4150 106° East 178 205 11,000  Level Chicago Center
02:10PM 42.7581 -85.3506 105° East 178 205 11,000  Level Chicago Center
02:11PM 42.7439 -85.2711 104° East 180 207 11,000  Level Chicago Center
02:12PM 42.7317 -85.2064 104° East 178 205 11,000  Level Chicago Center
02:13PM 42.7186 -85.1417 105° East 178 205 11,000  Level Chicago Center
02:14PM 42.7069 -85.0781 104° East 176 203 11,000  Level Chicago Center
02:15PM 42.6936 -85.0131 106° East 177 204 11,000  Level Chicago Center
02:16PM 42.6817 -84.9486 104° East 176 203 11,000  Level Chicago Center
02:17PM 42.6664 -84.8725 105° East 176 203 11,000  Level Chicago Center
02:18PM 42.6542 -84.8069 104° East 177 204 11,000 240 Level Chicago Center
02:19PM 42.6417 -84.7475 106° East 170 196 11,600 540 Climbing Chicago Center
02:20PM 42.6314 -84.6933 104° East 154 177 12,200 540 Climbing Chicago Center
02:21PM 42.6225 -84.6419 103° East 144 166 12,800 600 Climbing Chicago Center
02:22PM 42.6103 -84.5831 106° East 136 157 13,500 480 Climbing Chicago Center
02:23PM 42.6003 -84.5372 106° East 129 148 13,900 240 Climbing Chicago Center
02:24PM 42.5911 -84.4844 103° East 138 159 14,100 60 Climbing Chicago Center
02:25PM 42.5778 -84.4239 107° East 159 183 14,100  Level Chicago Center
02:27PM 42.5556 -84.3294 108° East 166 191 14,100  Level Cleveland Center
02:28PM 42.5431 -84.2667 105° East 166 191 14,100  Level Cleveland Center
02:29PM 42.5325 -84.2014 102° East 166 191 14,100  Level Cleveland Center
02:30PM 42.5178 -84.1386 108° East 166 191 14,100  Level Cleveland Center
02:31PM 42.5053 -84.0758 105° East 166 191 14,100  Level Cleveland Center
02:32PM 42.4925 -84.0131 105° East 166 191 14,100  Level Cleveland Center
02:33PM 42.4797 -83.9506 105° East 166 191 14,100  Level Cleveland Center
02:34PM 42.4669 -83.8878 105° East 166 191 14,100  Level Cleveland Center
02:35PM 42.4542 -83.8253 105° East 166 191 14,100  Level Cleveland Center
02:36PM 42.4414 -83.7628 105° East 166 191 14,100  Level Cleveland Center
02:37PM 42.4283 -83.7003 106° East 166 191 14,100  Level Cleveland Center
02:38PM 42.4156 -83.6375 105° East 166 191 14,100  Level Cleveland Center
02:39PM 42.3939 -83.5803 117° Southeast 166 191 14,100  Level Cleveland Center
02:40PM 42.3536 -83.5364 141° Southeast 178 205 14,100  Level Cleveland Center
02:41PM 42.3150 -83.4894 138° Southeast 178 205 14,100  Level Cleveland Center
02:42PM 42.2767 -83.4456 140° Southeast 183 211 14,100  Level Cleveland Center
02:43PM 42.2381 -83.3989 138° Southeast 183 211 14,100  Level Cleveland Center
02:44PM 42.1975 -83.3553 141° Southeast 183 211 14,100  Level Cleveland Center
02:45PM 42.1631 -83.3117 137° Southeast 178 205 14,100  Level Cleveland Center
02:46PM 42.1328 -83.2739 137° Southeast 183 211 14,100  Level Cleveland Center
02:47PM 42.0881 -83.2217 139° Southeast 178 205 14,100  Level Cleveland Center
02:48PM 42.0494 -83.1781 140° Southeast 178 205 14,100  Level Cleveland Center
02:49PM 42.0150 -83.1347 137° Southeast 178 205 14,100  Level Cleveland Center
02:50PM 42.0100 -83.0731 96° East 160 184 14,100 -180 Level Cleveland Center
02:51PM 42.0031 -83.0114 99° East 155 178 13,800 -360 Descending Cleveland Center
02:52PM 41.9961 -82.9414 98° East 166 191 13,400 -420 Descending Cleveland Center
02:53PM 41.9892 -82.8739 98° East 178 205 13,000 -480 Descending Cleveland Center
02:54PM 41.9822 -82.8011 97° East 184 212 12,500 -480 Descending Cleveland Center
02:55PM 41.9753 -82.7311 98° East 184 212 12,100 -480 Descending Cleveland Center
02:56PM 41.9683 -82.6608 98° East 184 212 11,600 -540 Descending Cleveland Center
02:57PM 41.9611 -82.5936 98° East 184 212 11,100 -540 Descending Cleveland Center
02:58PM 41.9539 -82.5236 98° East 184 212 10,600 -540 Descending Cleveland Center
02:59PM 41.9467 -82.4536 98° East 184 212 10,100 -540 Descending Cleveland Center
02:59PM 41.9392 -82.4058 102° East 194 223 9,700 -600 Descending Cleveland Center
03:00PM 41.9342 -82.3250 95° East 196 226 9,100 -600 Descending Cleveland Center
03:01PM 41.9269 -82.2522 98° East 202 232 8,500 -600 Descending Cleveland Center
03:02PM 41.9175 -82.1822 100° East 193 222 7,900 -600 Descending Cleveland Center
03:03PM 41.8975 -82.1175 113° Southeast 202 232 7,400 -600 Descending Cleveland Center
03:04PM 41.8522 -82.0689 141° Southeast 203 234 6,800 -600 Descending Cleveland Center
03:05PM 41.8050 -82.0289 148° Southeast 194 223 6,200 -660 Descending Cleveland Center
03:06PM 41.7658 -81.9889 143° Southeast 182 209 5,500 -720 Descending Cleveland Center
03:07PM 41.7225 -81.9519 148° Southeast 178 205 4,800 -780 Descending Cleveland Center
03:09PM 41.6833 -81.9178 147° Southeast 179 206 4,000 -780 Descending Cleveland Center
03:10PM 41.6422 -81.8697 139° Southeast 176 203 3,300 -720 Descending Cleveland Center
03:11PM 41.6031 -81.8300 143° Southeast 168 193 2,600 -360 Descending Cleveland Center
03:12PM 41.5783 -81.7878 128° Southeast 139 160 2,600  Level Cleveland Center
03:13PM 41.5664 -81.7406 109° East 133 153 2,600 -180 Level Cleveland Center
03:14PM 41.5394 -81.7317 166° South 170 196 2,300 -600 Descending Cleveland Center
03:15PM 41.5061 -81.7283 176° South 103 119 1,500 -840 Descending Cleveland Center
03:17PM 41.5175 -81.6833 217° Southwest  Level Estimated
03:24PM 41.5175 -81.6833 217° Southwest  Level Estimated